sensor_id;sensor_type;location;lat;lon;timestamp;temperature;humidity
9215;DHT22;4642;51.364;6.788;2023-01-31T00:01:14;4.50;99.90
9215;DHT22;4642;51.364;6.788;2023-01-31T00:03:40;4.60;99.90
9215;DHT22;4642;51.364;6.788;2023-01-31T00:06:23;4.60;99.90
9215;DHT22;4642;51.364;6.788;2023-01-31T00:08:49;4.60;99.90
9215;DHT22;4642;51.364;6.788;2023-01-31T00:11:17;4.60;99.90
9215;DHT22;4642;51.364;6.788;2023-01-31T00:13:43;4.60;99.90
9215;DHT22;4642;51.364;6.788;2023-01-31T00:16:10;4.60;99.90
9215;DHT22;4642;51.364;6.788;2023-01-31T00:18:37;4.60;99.90
9215;DHT22;4642;51.364;6.788;2023-01-31T00:21:24;4.60;99.90
9215;DHT22;4642;51.364;6.788;2023-01-31T00:23:51;4.70;99.90
9215;DHT22;4642;51.364;6.788;2023-01-31T00:26:26;4.70;99.90
9215;DHT22;4642;51.364;6.788;2023-01-31T00:28:53;4.70;99.90
9215;DHT22;4642;51.364;6.788;2023-01-31T00:31:19;4.70;99.90
9215;DHT22;4642;51.364;6.788;2023-01-31T00:33:47;4.70;99.90
9215;DHT22;4642;51.364;6.788;2023-01-31T00:36:17;4.70;99.90
9215;DHT22;4642;51.364;6.788;2023-01-31T00:38:43;4.60;99.90
9215;DHT22;4642;51.364;6.788;2023-01-31T00:41:09;4.60;99.90
9215;DHT22;4642;51.364;6.788;2023-01-31T00:43:35;4.60;99.90
9215;DHT22;4642;51.364;6.788;2023-01-31T00:46:01;4.60;99.90
9215;DHT22;4642;51.364;6.788;2023-01-31T00:48:27;4.50;99.90
9215;DHT22;4642;51.364;6.788;2023-01-31T00:50:52;4.50;99.90
9215;DHT22;4642;51.364;6.788;2023-01-31T00:53:18;4.50;99.90
9215;DHT22;4642;51.364;6.788;2023-01-31T00:55:49;4.40;99.90
9215;DHT22;4642;51.364;6.788;2023-01-31T00:58:14;4.40;99.90
9215;DHT22;4642;51.364;6.788;2023-01-31T01:00:40;4.40;99.90
9215;DHT22;4642;51.364;6.788;2023-01-31T01:03:05;4.30;99.90
9215;DHT22;4642;51.364;6.788;2023-01-31T01:05:31;4.30;99.90
9215;DHT22;4642;51.364;6.788;2023-01-31T01:07:56;4.20;99.90
9215;DHT22;4642;51.364;6.788;2023-01-31T01:10:22;4.20;99.90
9215;DHT22;4642;51.364;6.788;2023-01-31T01:12:47;4.10;99.90
9215;DHT22;4642;51.364;6.788;2023-01-31T01:15:13;4.10;99.90
9215;DHT22;4642;51.364;6.788;2023-01-31T01:17:39;4.10;99.90
9215;DHT22;4642;51.364;6.788;2023-01-31T01:20:05;4.10;99.90
9215;DHT22;4642;51.364;6.788;2023-01-31T01:22:32;4.10;99.90
9215;DHT22;4642;51.364;6.788;2023-01-31T01:24:57;4.10;99.90
9215;DHT22;4642;51.364;6.788;2023-01-31T01:27:23;4.00;99.90
9215;DHT22;4642;51.364;6.788;2023-01-31T01:29:48;4.00;99.90
9215;DHT22;4642;51.364;6.788;2023-01-31T01:32:14;4.00;99.90
9215;DHT22;4642;51.364;6.788;2023-01-31T01:34:40;3.90;99.90
9215;DHT22;4642;51.364;6.788;2023-01-31T01:37:07;3.90;99.90
9215;DHT22;4642;51.364;6.788;2023-01-31T01:39:48;3.90;99.90
9215;DHT22;4642;51.364;6.788;2023-01-31T01:42:22;3.90;99.90
9215;DHT22;4642;51.364;6.788;2023-01-31T01:44:58;3.80;99.90
9215;DHT22;4642;51.364;6.788;2023-01-31T01:47:46;3.80;99.90
9215;DHT22;4642;51.364;6.788;2023-01-31T01:50:38;3.80;99.90
9215;DHT22;4642;51.364;6.788;2023-01-31T01:53:15;3.80;99.90
9215;DHT22;4642;51.364;6.788;2023-01-31T01:56:02;3.80;99.90
9215;DHT22;4642;51.364;6.788;2023-01-31T01:58:48;3.80;99.90
9215;DHT22;4642;51.364;6.788;2023-01-31T02:01:16;3.80;99.90
9215;DHT22;4642;51.364;6.788;2023-01-31T02:03:44;3.80;99.90
9215;DHT22;4642;51.364;6.788;2023-01-31T02:06:10;3.80;99.90
9215;DHT22;4642;51.364;6.788;2023-01-31T02:08:38;3.80;99.90
9215;DHT22;4642;51.364;6.788;2023-01-31T02:11:23;3.70;99.90
9215;DHT22;4642;51.364;6.788;2023-01-31T02:13:52;3.70;99.90
9215;DHT22;4642;51.364;6.788;2023-01-31T02:16:19;3.70;99.90
9215;DHT22;4642;51.364;6.788;2023-01-31T02:18:45;3.70;99.90
9215;DHT22;4642;51.364;6.788;2023-01-31T02:35:27;3.50;99.90
9215;DHT22;4642;51.364;6.788;2023-01-31T02:43:10;3.40;99.90
9215;DHT22;4642;51.364;6.788;2023-01-31T02:48:37;3.40;99.90
9215;DHT22;4642;51.364;6.788;2023-01-31T02:51:25;3.40;99.90
9215;DHT22;4642;51.364;6.788;2023-01-31T02:56:32;3.30;99.90
9215;DHT22;4642;51.364;6.788;2023-01-31T02:59:03;3.20;99.90
9215;DHT22;4642;51.364;6.788;2023-01-31T03:01:35;3.10;99.90
9215;DHT22;4642;51.364;6.788;2023-01-31T03:04:05;3.00;99.90
9215;DHT22;4642;51.364;6.788;2023-01-31T03:09:35;2.90;99.90
9215;DHT22;4642;51.364;6.788;2023-01-31T03:14:47;2.70;99.90
9215;DHT22;4642;51.364;6.788;2023-01-31T03:17:30;2.70;99.90
9215;DHT22;4642;51.364;6.788;2023-01-31T03:20:07;2.60;99.90
9215;DHT22;4642;51.364;6.788;2023-01-31T03:22:39;2.60;99.90
9215;DHT22;4642;51.364;6.788;2023-01-31T03:25:07;2.60;99.90
9215;DHT22;4642;51.364;6.788;2023-01-31T03:27:34;2.60;99.90
9215;DHT22;4642;51.364;6.788;2023-01-31T03:32:53;2.60;99.90
9215;DHT22;4642;51.364;6.788;2023-01-31T03:35:23;2.60;99.90
9215;DHT22;4642;51.364;6.788;2023-01-31T03:38:04;2.60;99.90
9215;DHT22;4642;51.364;6.788;2023-01-31T03:40:46;2.60;99.90
9215;DHT22;4642;51.364;6.788;2023-01-31T03:43:30;2.60;99.90
9215;DHT22;4642;51.364;6.788;2023-01-31T03:46:00;2.50;99.90
9215;DHT22;4642;51.364;6.788;2023-01-31T03:48:32;2.50;99.90
9215;DHT22;4642;51.364;6.788;2023-01-31T03:51:02;2.50;99.90
9215;DHT22;4642;51.364;6.788;2023-01-31T03:53:44;2.50;99.90
9215;DHT22;4642;51.364;6.788;2023-01-31T03:56:34;2.50;99.90
9215;DHT22;4642;51.364;6.788;2023-01-31T03:59:07;2.50;99.90
9215;DHT22;4642;51.364;6.788;2023-01-31T04:01:40;2.50;99.90
9215;DHT22;4642;51.364;6.788;2023-01-31T04:04:10;2.50;99.90
9215;DHT22;4642;51.364;6.788;2023-01-31T04:06:38;2.50;99.90
9215;DHT22;4642;51.364;6.788;2023-01-31T04:09:04;2.50;99.90
9215;DHT22;4642;51.364;6.788;2023-01-31T04:11:36;2.50;99.90
9215;DHT22;4642;51.364;6.788;2023-01-31T04:14:02;2.50;99.90
9215;DHT22;4642;51.364;6.788;2023-01-31T04:16:28;2.50;99.90
9215;DHT22;4642;51.364;6.788;2023-01-31T04:18:53;2.50;99.90
9215;DHT22;4642;51.364;6.788;2023-01-31T04:21:21;2.50;99.90
9215;DHT22;4642;51.364;6.788;2023-01-31T04:23:46;2.60;99.90
9215;DHT22;4642;51.364;6.788;2023-01-31T04:26:12;2.60;99.90
9215;DHT22;4642;51.364;6.788;2023-01-31T04:28:38;2.60;99.90
9215;DHT22;4642;51.364;6.788;2023-01-31T04:31:04;2.60;99.90
9215;DHT22;4642;51.364;6.788;2023-01-31T04:33:29;2.60;99.90
9215;DHT22;4642;51.364;6.788;2023-01-31T04:35:55;2.70;99.90
9215;DHT22;4642;51.364;6.788;2023-01-31T04:38:20;2.70;99.90
9215;DHT22;4642;51.364;6.788;2023-01-31T04:40:46;2.70;99.90
9215;DHT22;4642;51.364;6.788;2023-01-31T04:43:12;2.80;99.90
9215;DHT22;4642;51.364;6.788;2023-01-31T04:45:37;2.80;99.90
9215;DHT22;4642;51.364;6.788;2023-01-31T04:48:03;2.80;99.90
9215;DHT22;4642;51.364;6.788;2023-01-31T04:50:29;2.80;99.90
9215;DHT22;4642;51.364;6.788;2023-01-31T04:52:55;2.80;99.90
9215;DHT22;4642;51.364;6.788;2023-01-31T04:55:20;2.80;99.90
9215;DHT22;4642;51.364;6.788;2023-01-31T04:57:46;2.90;99.90
9215;DHT22;4642;51.364;6.788;2023-01-31T05:00:12;2.90;99.90
9215;DHT22;4642;51.364;6.788;2023-01-31T05:02:38;2.90;99.90
9215;DHT22;4642;51.364;6.788;2023-01-31T05:05:05;3.00;99.90
9215;DHT22;4642;51.364;6.788;2023-01-31T05:07:31;3.00;99.90
9215;DHT22;4642;51.364;6.788;2023-01-31T05:09:56;3.00;99.90
9215;DHT22;4642;51.364;6.788;2023-01-31T05:12:22;3.10;99.90
9215;DHT22;4642;51.364;6.788;2023-01-31T05:14:47;3.10;99.90
9215;DHT22;4642;51.364;6.788;2023-01-31T05:17:13;3.10;99.90
9215;DHT22;4642;51.364;6.788;2023-01-31T05:19:38;3.10;99.90
9215;DHT22;4642;51.364;6.788;2023-01-31T05:22:04;3.10;99.90
9215;DHT22;4642;51.364;6.788;2023-01-31T05:24:31;3.10;99.90
9215;DHT22;4642;51.364;6.788;2023-01-31T05:27:00;3.10;99.90
9215;DHT22;4642;51.364;6.788;2023-01-31T05:29:27;3.20;99.90
9215;DHT22;4642;51.364;6.788;2023-01-31T05:31:54;3.20;99.90
9215;DHT22;4642;51.364;6.788;2023-01-31T05:34:21;3.20;99.90
9215;DHT22;4642;51.364;6.788;2023-01-31T05:36:47;3.20;99.90
9215;DHT22;4642;51.364;6.788;2023-01-31T05:39:12;3.20;99.90
9215;DHT22;4642;51.364;6.788;2023-01-31T05:41:38;3.20;99.90
9215;DHT22;4642;51.364;6.788;2023-01-31T05:44:04;3.20;99.90
9215;DHT22;4642;51.364;6.788;2023-01-31T05:46:29;3.20;99.90
9215;DHT22;4642;51.364;6.788;2023-01-31T05:48:55;3.20;99.90
9215;DHT22;4642;51.364;6.788;2023-01-31T05:51:20;3.20;99.90
9215;DHT22;4642;51.364;6.788;2023-01-31T05:53:46;3.20;99.90
9215;DHT22;4642;51.364;6.788;2023-01-31T05:56:13;3.20;99.90
9215;DHT22;4642;51.364;6.788;2023-01-31T05:58:39;3.20;99.90
9215;DHT22;4642;51.364;6.788;2023-01-31T06:01:04;3.20;99.90
9215;DHT22;4642;51.364;6.788;2023-01-31T06:03:30;3.20;99.90
9215;DHT22;4642;51.364;6.788;2023-01-31T06:05:55;3.20;99.90
9215;DHT22;4642;51.364;6.788;2023-01-31T06:08:21;3.20;99.90
9215;DHT22;4642;51.364;6.788;2023-01-31T06:10:46;3.20;99.90
9215;DHT22;4642;51.364;6.788;2023-01-31T06:13:12;3.20;99.90
9215;DHT22;4642;51.364;6.788;2023-01-31T06:15:44;3.20;99.90
9215;DHT22;4642;51.364;6.788;2023-01-31T06:18:10;3.20;99.90
9215;DHT22;4642;51.364;6.788;2023-01-31T06:20:36;3.30;99.90
9215;DHT22;4642;51.364;6.788;2023-01-31T06:23:03;3.20;99.90
9215;DHT22;4642;51.364;6.788;2023-01-31T06:25:29;3.30;99.90
9215;DHT22;4642;51.364;6.788;2023-01-31T06:27:55;3.30;99.90
9215;DHT22;4642;51.364;6.788;2023-01-31T06:30:20;3.30;99.90
9215;DHT22;4642;51.364;6.788;2023-01-31T06:32:46;3.30;99.90
9215;DHT22;4642;51.364;6.788;2023-01-31T06:35:12;3.30;99.90
9215;DHT22;4642;51.364;6.788;2023-01-31T06:37:37;3.30;99.90
9215;DHT22;4642;51.364;6.788;2023-01-31T06:40:03;3.40;99.90
9215;DHT22;4642;51.364;6.788;2023-01-31T06:42:28;3.40;99.90
9215;DHT22;4642;51.364;6.788;2023-01-31T06:44:54;3.40;99.90
9215;DHT22;4642;51.364;6.788;2023-01-31T06:47:19;3.40;99.90
9215;DHT22;4642;51.364;6.788;2023-01-31T06:49:45;3.40;99.90
9215;DHT22;4642;51.364;6.788;2023-01-31T06:52:10;3.40;99.90
9215;DHT22;4642;51.364;6.788;2023-01-31T06:54:36;3.60;99.90
9215;DHT22;4642;51.364;6.788;2023-01-31T06:57:02;3.60;99.90
9215;DHT22;4642;51.364;6.788;2023-01-31T06:59:27;3.60;99.90
9215;DHT22;4642;51.364;6.788;2023-01-31T07:01:53;3.70;99.90
9215;DHT22;4642;51.364;6.788;2023-01-31T07:04:18;3.80;99.90
9215;DHT22;4642;51.364;6.788;2023-01-31T07:06:44;3.80;99.90
9215;DHT22;4642;51.364;6.788;2023-01-31T07:09:10;3.90;99.90
9215;DHT22;4642;51.364;6.788;2023-01-31T07:11:37;4.10;99.90
9215;DHT22;4642;51.364;6.788;2023-01-31T07:14:03;4.00;99.90
9215;DHT22;4642;51.364;6.788;2023-01-31T07:16:28;4.00;99.90
9215;DHT22;4642;51.364;6.788;2023-01-31T07:18:55;4.00;99.90
9215;DHT22;4642;51.364;6.788;2023-01-31T07:21:21;4.10;99.90
9215;DHT22;4642;51.364;6.788;2023-01-31T07:23:47;4.10;99.90
9215;DHT22;4642;51.364;6.788;2023-01-31T07:26:13;4.20;99.90
9215;DHT22;4642;51.364;6.788;2023-01-31T07:28:38;4.20;99.90
9215;DHT22;4642;51.364;6.788;2023-01-31T07:31:06;4.20;99.90
9215;DHT22;4642;51.364;6.788;2023-01-31T07:33:32;4.30;99.90
9215;DHT22;4642;51.364;6.788;2023-01-31T07:36:00;4.30;99.90
9215;DHT22;4642;51.364;6.788;2023-01-31T07:38:27;4.40;99.90
9215;DHT22;4642;51.364;6.788;2023-01-31T07:40:52;4.50;99.90
9215;DHT22;4642;51.364;6.788;2023-01-31T07:43:18;4.50;99.90
9215;DHT22;4642;51.364;6.788;2023-01-31T07:45:45;4.60;99.90
9215;DHT22;4642;51.364;6.788;2023-01-31T07:48:10;4.60;99.90
9215;DHT22;4642;51.364;6.788;2023-01-31T07:50:36;4.60;99.90
9215;DHT22;4642;51.364;6.788;2023-01-31T07:53:01;4.60;99.90
9215;DHT22;4642;51.364;6.788;2023-01-31T07:55:27;4.50;99.90
9215;DHT22;4642;51.364;6.788;2023-01-31T07:57:52;4.60;99.90
9215;DHT22;4642;51.364;6.788;2023-01-31T08:00:18;4.50;99.90
9215;DHT22;4642;51.364;6.788;2023-01-31T08:03:03;4.50;99.90
9215;DHT22;4642;51.364;6.788;2023-01-31T08:05:47;4.60;99.90
9215;DHT22;4642;51.364;6.788;2023-01-31T08:08:13;4.50;99.90
9215;DHT22;4642;51.364;6.788;2023-01-31T08:10:38;4.60;99.90
9215;DHT22;4642;51.364;6.788;2023-01-31T08:13:04;4.60;99.90
9215;DHT22;4642;51.364;6.788;2023-01-31T08:15:31;4.60;99.90
9215;DHT22;4642;51.364;6.788;2023-01-31T08:17:57;4.60;99.90
9215;DHT22;4642;51.364;6.788;2023-01-31T08:20:22;4.60;99.90
9215;DHT22;4642;51.364;6.788;2023-01-31T08:22:48;4.70;99.90
9215;DHT22;4642;51.364;6.788;2023-01-31T08:25:13;4.70;99.90
9215;DHT22;4642;51.364;6.788;2023-01-31T08:27:39;4.70;99.90
9215;DHT22;4642;51.364;6.788;2023-01-31T08:30:05;4.70;99.90
9215;DHT22;4642;51.364;6.788;2023-01-31T08:32:31;4.70;99.90
9215;DHT22;4642;51.364;6.788;2023-01-31T08:34:56;4.70;99.90
9215;DHT22;4642;51.364;6.788;2023-01-31T08:37:22;4.70;99.90
9215;DHT22;4642;51.364;6.788;2023-01-31T08:39:48;4.70;99.90
9215;DHT22;4642;51.364;6.788;2023-01-31T08:42:13;4.70;99.90
9215;DHT22;4642;51.364;6.788;2023-01-31T08:44:39;4.80;99.90
9215;DHT22;4642;51.364;6.788;2023-01-31T08:47:04;4.80;99.90
9215;DHT22;4642;51.364;6.788;2023-01-31T08:49:30;4.80;99.90
9215;DHT22;4642;51.364;6.788;2023-01-31T08:51:57;4.80;99.90
9215;DHT22;4642;51.364;6.788;2023-01-31T08:54:23;4.80;99.90
9215;DHT22;4642;51.364;6.788;2023-01-31T08:56:48;4.80;99.90
9215;DHT22;4642;51.364;6.788;2023-01-31T08:59:14;4.80;99.90
9215;DHT22;4642;51.364;6.788;2023-01-31T09:01:39;4.80;99.90
9215;DHT22;4642;51.364;6.788;2023-01-31T09:04:06;4.80;99.90
9215;DHT22;4642;51.364;6.788;2023-01-31T09:06:33;4.80;99.90
9215;DHT22;4642;51.364;6.788;2023-01-31T09:08:58;4.90;99.90
9215;DHT22;4642;51.364;6.788;2023-01-31T09:11:26;4.90;99.90
9215;DHT22;4642;51.364;6.788;2023-01-31T09:13:52;4.90;99.90
9215;DHT22;4642;51.364;6.788;2023-01-31T09:16:18;4.90;99.90
9215;DHT22;4642;51.364;6.788;2023-01-31T09:18:45;4.90;99.90
9215;DHT22;4642;51.364;6.788;2023-01-31T09:21:13;4.90;99.90
9215;DHT22;4642;51.364;6.788;2023-01-31T09:23:40;5.00;99.90
9215;DHT22;4642;51.364;6.788;2023-01-31T09:26:06;5.00;99.90
9215;DHT22;4642;51.364;6.788;2023-01-31T09:28:32;5.00;99.90
9215;DHT22;4642;51.364;6.788;2023-01-31T09:31:09;5.10;99.90
9215;DHT22;4642;51.364;6.788;2023-01-31T09:33:35;5.10;99.90
9215;DHT22;4642;51.364;6.788;2023-01-31T09:36:06;5.10;99.90
9215;DHT22;4642;51.364;6.788;2023-01-31T09:38:32;5.10;99.90
9215;DHT22;4642;51.364;6.788;2023-01-31T09:41:01;5.20;99.90
9215;DHT22;4642;51.364;6.788;2023-01-31T09:43:41;5.30;99.90
9215;DHT22;4642;51.364;6.788;2023-01-31T09:46:15;5.30;99.90
9215;DHT22;4642;51.364;6.788;2023-01-31T09:48:44;5.40;99.90
9215;DHT22;4642;51.364;6.788;2023-01-31T09:51:11;5.40;99.90
9215;DHT22;4642;51.364;6.788;2023-01-31T09:53:38;5.50;99.90
9215;DHT22;4642;51.364;6.788;2023-01-31T10:01:24;5.60;99.90
9215;DHT22;4642;51.364;6.788;2023-01-31T10:07:03;5.60;99.90
9215;DHT22;4642;51.364;6.788;2023-01-31T10:09:36;5.70;99.90
9215;DHT22;4642;51.364;6.788;2023-01-31T10:12:19;5.70;99.90
9215;DHT22;4642;51.364;6.788;2023-01-31T10:14:52;5.70;99.90
9215;DHT22;4642;51.364;6.788;2023-01-31T10:17:24;5.70;99.90
9215;DHT22;4642;51.364;6.788;2023-01-31T10:20:18;5.70;99.90
9215;DHT22;4642;51.364;6.788;2023-01-31T10:22:55;5.70;99.90
9215;DHT22;4642;51.364;6.788;2023-01-31T10:31:33;5.80;99.90
9215;DHT22;4642;51.364;6.788;2023-01-31T10:39:43;5.90;99.90
9215;DHT22;4642;51.364;6.788;2023-01-31T10:42:26;6.00;99.90
9215;DHT22;4642;51.364;6.788;2023-01-31T10:45:10;6.00;99.90
9215;DHT22;4642;51.364;6.788;2023-01-31T10:47:40;6.10;99.90
9215;DHT22;4642;51.364;6.788;2023-01-31T10:50:14;6.10;99.90
9215;DHT22;4642;51.364;6.788;2023-01-31T10:53:11;6.20;99.90
9215;DHT22;4642;51.364;6.788;2023-01-31T10:58:17;6.30;99.90
9215;DHT22;4642;51.364;6.788;2023-01-31T11:00:44;6.30;99.90
9215;DHT22;4642;51.364;6.788;2023-01-31T11:03:13;6.30;99.90
9215;DHT22;4642;51.364;6.788;2023-01-31T11:05:47;6.30;99.90
9215;DHT22;4642;51.364;6.788;2023-01-31T11:11:14;6.30;99.90
9215;DHT22;4642;51.364;6.788;2023-01-31T11:13:58;6.30;99.90
9215;DHT22;4642;51.364;6.788;2023-01-31T11:16:27;6.30;99.90
9215;DHT22;4642;51.364;6.788;2023-01-31T11:18:56;6.30;99.90
9215;DHT22;4642;51.364;6.788;2023-01-31T11:21:25;6.30;99.90
9215;DHT22;4642;51.364;6.788;2023-01-31T11:23:51;6.40;99.90
9215;DHT22;4642;51.364;6.788;2023-01-31T11:26:53;6.40;99.90
9215;DHT22;4642;51.364;6.788;2023-01-31T11:29:28;6.40;99.90
9215;DHT22;4642;51.364;6.788;2023-01-31T11:31:55;6.40;99.90
9215;DHT22;4642;51.364;6.788;2023-01-31T11:34:23;6.50;99.90
9215;DHT22;4642;51.364;6.788;2023-01-31T11:36:49;6.50;99.90
9215;DHT22;4642;51.364;6.788;2023-01-31T11:39:35;6.50;99.90
9215;DHT22;4642;51.364;6.788;2023-01-31T11:42:20;6.50;99.90
9215;DHT22;4642;51.364;6.788;2023-01-31T11:45:02;6.60;99.90
9215;DHT22;4642;51.364;6.788;2023-01-31T11:47:44;6.60;99.90
9215;DHT22;4642;51.364;6.788;2023-01-31T11:50:22;6.60;99.90
9215;DHT22;4642;51.364;6.788;2023-01-31T11:52:56;6.70;99.90
9215;DHT22;4642;51.364;6.788;2023-01-31T11:55:23;6.70;99.90
9215;DHT22;4642;51.364;6.788;2023-01-31T11:57:55;6.70;99.90
9215;DHT22;4642;51.364;6.788;2023-01-31T12:00:23;6.80;99.90
9215;DHT22;4642;51.364;6.788;2023-01-31T12:03:00;6.80;99.90
9215;DHT22;4642;51.364;6.788;2023-01-31T12:05:44;6.80;99.90
9215;DHT22;4642;51.364;6.788;2023-01-31T12:08:29;6.80;99.90
9215;DHT22;4642;51.364;6.788;2023-01-31T12:10:56;6.80;99.90
9215;DHT22;4642;51.364;6.788;2023-01-31T12:13:22;6.80;99.90
9215;DHT22;4642;51.364;6.788;2023-01-31T12:16:02;6.80;99.90
9215;DHT22;4642;51.364;6.788;2023-01-31T12:19:02;6.80;99.90
9215;DHT22;4642;51.364;6.788;2023-01-31T12:26:54;6.80;99.90
9215;DHT22;4642;51.364;6.788;2023-01-31T12:41:25;6.80;99.90
9215;DHT22;4642;51.364;6.788;2023-01-31T12:44:00;6.80;99.90
9215;DHT22;4642;51.364;6.788;2023-01-31T12:52:11;6.80;99.90
9215;DHT22;4642;51.364;6.788;2023-01-31T12:57:32;6.80;99.90
9215;DHT22;4642;51.364;6.788;2023-01-31T13:00:34;6.80;99.90
9215;DHT22;4642;51.364;6.788;2023-01-31T13:05:43;6.80;99.90
9215;DHT22;4642;51.364;6.788;2023-01-31T13:08:17;6.80;99.90
9215;DHT22;4642;51.364;6.788;2023-01-31T13:11:04;6.80;99.90
9215;DHT22;4642;51.364;6.788;2023-01-31T13:16:21;6.80;99.90
9215;DHT22;4642;51.364;6.788;2023-01-31T13:18:51;6.80;99.90
9215;DHT22;4642;51.364;6.788;2023-01-31T13:21:24;6.80;99.90
9215;DHT22;4642;51.364;6.788;2023-01-31T13:24:12;6.80;99.90
9215;DHT22;4642;51.364;6.788;2023-01-31T13:26:49;6.70;99.90
9215;DHT22;4642;51.364;6.788;2023-01-31T13:29:22;6.70;99.90
9215;DHT22;4642;51.364;6.788;2023-01-31T13:34:47;6.60;99.90
9215;DHT22;4642;51.364;6.788;2023-01-31T13:37:15;6.60;99.90
9215;DHT22;4642;51.364;6.788;2023-01-31T13:39:54;6.60;99.90
9215;DHT22;4642;51.364;6.788;2023-01-31T13:42:22;6.50;99.90
9215;DHT22;4642;51.364;6.788;2023-01-31T13:44:47;6.60;99.90
9215;DHT22;4642;51.364;6.788;2023-01-31T13:50:03;6.50;99.90
9215;DHT22;4642;51.364;6.788;2023-01-31T13:52:34;6.60;99.90
9215;DHT22;4642;51.364;6.788;2023-01-31T13:55:06;6.50;99.90
9215;DHT22;4642;51.364;6.788;2023-01-31T13:57:35;6.50;99.90
9215;DHT22;4642;51.364;6.788;2023-01-31T14:00:29;6.50;99.90
9215;DHT22;4642;51.364;6.788;2023-01-31T14:03:25;6.50;99.90
9215;DHT22;4642;51.364;6.788;2023-01-31T14:05:59;6.50;99.90
9215;DHT22;4642;51.364;6.788;2023-01-31T14:11:30;6.50;99.90
9215;DHT22;4642;51.364;6.788;2023-01-31T14:19:03;6.50;99.90
9215;DHT22;4642;51.364;6.788;2023-01-31T14:23:56;6.60;99.90
9215;DHT22;4642;51.364;6.788;2023-01-31T14:26:50;6.60;99.90
9215;DHT22;4642;51.364;6.788;2023-01-31T14:29:24;6.60;99.90
9215;DHT22;4642;51.364;6.788;2023-01-31T14:31:52;6.60;99.90
9215;DHT22;4642;51.364;6.788;2023-01-31T14:34:25;6.60;99.90
9215;DHT22;4642;51.364;6.788;2023-01-31T14:43:01;6.60;99.90
9215;DHT22;4642;51.364;6.788;2023-01-31T14:45:50;6.60;99.90
9215;DHT22;4642;51.364;6.788;2023-01-31T14:48:25;6.60;99.90
9215;DHT22;4642;51.364;6.788;2023-01-31T14:51:08;6.60;99.90
9215;DHT22;4642;51.364;6.788;2023-01-31T14:58:51;6.70;99.90
9215;DHT22;4642;51.364;6.788;2023-01-31T15:01:20;6.60;99.90
9215;DHT22;4642;51.364;6.788;2023-01-31T15:03:51;6.70;99.90
9215;DHT22;4642;51.364;6.788;2023-01-31T15:06:26;6.70;99.90
9215;DHT22;4642;51.364;6.788;2023-01-31T15:11:43;6.70;99.90
9215;DHT22;4642;51.364;6.788;2023-01-31T15:14:29;6.70;99.90
9215;DHT22;4642;51.364;6.788;2023-01-31T15:17:11;6.70;99.90
9215;DHT22;4642;51.364;6.788;2023-01-31T15:19:51;6.80;99.90
9215;DHT22;4642;51.364;6.788;2023-01-31T15:22:19;6.80;99.90
9215;DHT22;4642;51.364;6.788;2023-01-31T15:24:51;6.80;99.90
9215;DHT22;4642;51.364;6.788;2023-01-31T15:27:21;6.80;99.90
9215;DHT22;4642;51.364;6.788;2023-01-31T15:32:25;6.90;99.90
9215;DHT22;4642;51.364;6.788;2023-01-31T15:35:00;6.90;99.90
9215;DHT22;4642;51.364;6.788;2023-01-31T15:37:31;6.90;99.90
9215;DHT22;4642;51.364;6.788;2023-01-31T15:40:16;6.90;99.90
9215;DHT22;4642;51.364;6.788;2023-01-31T15:42:41;7.00;99.90
9215;DHT22;4642;51.364;6.788;2023-01-31T15:45:24;7.00;99.90
9215;DHT22;4642;51.364;6.788;2023-01-31T15:48:01;7.10;99.90
9215;DHT22;4642;51.364;6.788;2023-01-31T15:50:30;7.00;99.90
9215;DHT22;4642;51.364;6.788;2023-01-31T15:53:00;7.10;99.90
9215;DHT22;4642;51.364;6.788;2023-01-31T15:55:26;7.10;99.90
9215;DHT22;4642;51.364;6.788;2023-01-31T15:57:54;7.10;99.90
9215;DHT22;4642;51.364;6.788;2023-01-31T16:00:25;7.00;99.90
9215;DHT22;4642;51.364;6.788;2023-01-31T16:02:51;7.10;99.90
9215;DHT22;4642;51.364;6.788;2023-01-31T16:05:26;7.10;99.90
9215;DHT22;4642;51.364;6.788;2023-01-31T16:07:52;7.20;99.90
9215;DHT22;4642;51.364;6.788;2023-01-31T16:10:17;7.20;99.90
9215;DHT22;4642;51.364;6.788;2023-01-31T16:12:46;7.20;99.90
9215;DHT22;4642;51.364;6.788;2023-01-31T16:15:27;7.20;99.90
9215;DHT22;4642;51.364;6.788;2023-01-31T16:17:55;7.30;99.90
9215;DHT22;4642;51.364;6.788;2023-01-31T16:23:26;7.30;99.90
9215;DHT22;4642;51.364;6.788;2023-01-31T16:26:08;7.40;99.90
9215;DHT22;4642;51.364;6.788;2023-01-31T16:28:41;7.40;99.90
9215;DHT22;4642;51.364;6.788;2023-01-31T16:31:10;7.30;99.90
9215;DHT22;4642;51.364;6.788;2023-01-31T16:33:38;7.40;99.90
9215;DHT22;4642;51.364;6.788;2023-01-31T16:36:09;7.40;99.90
9215;DHT22;4642;51.364;6.788;2023-01-31T16:38:38;7.30;99.90
9215;DHT22;4642;51.364;6.788;2023-01-31T16:41:04;7.30;99.90
9215;DHT22;4642;51.364;6.788;2023-01-31T16:43:34;7.30;99.90
9215;DHT22;4642;51.364;6.788;2023-01-31T16:46:03;7.30;99.90
9215;DHT22;4642;51.364;6.788;2023-01-31T16:48:35;7.30;99.90
9215;DHT22;4642;51.364;6.788;2023-01-31T16:54:21;7.30;99.90
9215;DHT22;4642;51.364;6.788;2023-01-31T17:02:11;7.20;99.90
9215;DHT22;4642;51.364;6.788;2023-01-31T17:04:38;7.20;99.90
9215;DHT22;4642;51.364;6.788;2023-01-31T17:07:07;7.20;99.90
9215;DHT22;4642;51.364;6.788;2023-01-31T17:09:36;7.30;99.90
9215;DHT22;4642;51.364;6.788;2023-01-31T17:12:02;7.30;99.90
9215;DHT22;4642;51.364;6.788;2023-01-31T17:14:30;7.40;99.90
9215;DHT22;4642;51.364;6.788;2023-01-31T17:16:58;7.40;99.90
9215;DHT22;4642;51.364;6.788;2023-01-31T17:19:24;7.40;99.90
9215;DHT22;4642;51.364;6.788;2023-01-31T17:21:49;7.40;99.90
9215;DHT22;4642;51.364;6.788;2023-01-31T17:24:19;7.40;99.90
9215;DHT22;4642;51.364;6.788;2023-01-31T17:26:47;7.50;99.90
9215;DHT22;4642;51.364;6.788;2023-01-31T17:29:13;7.60;99.90
9215;DHT22;4642;51.364;6.788;2023-01-31T17:31:38;7.60;99.90
9215;DHT22;4642;51.364;6.788;2023-01-31T17:34:13;7.50;99.90
9215;DHT22;4642;51.364;6.788;2023-01-31T17:36:41;7.50;99.90
9215;DHT22;4642;51.364;6.788;2023-01-31T17:39:06;7.50;99.90
9215;DHT22;4642;51.364;6.788;2023-01-31T17:41:32;7.50;99.90
9215;DHT22;4642;51.364;6.788;2023-01-31T17:43:59;7.50;99.90
9215;DHT22;4642;51.364;6.788;2023-01-31T17:46:26;7.50;99.90
9215;DHT22;4642;51.364;6.788;2023-01-31T17:48:53;7.50;99.90
9215;DHT22;4642;51.364;6.788;2023-01-31T17:51:18;7.50;99.90
9215;DHT22;4642;51.364;6.788;2023-01-31T17:53:44;7.40;99.90
9215;DHT22;4642;51.364;6.788;2023-01-31T17:56:09;7.40;99.90
9215;DHT22;4642;51.364;6.788;2023-01-31T17:58:35;7.40;99.90
9215;DHT22;4642;51.364;6.788;2023-01-31T18:01:00;7.40;99.90
9215;DHT22;4642;51.364;6.788;2023-01-31T18:03:26;7.40;99.90
9215;DHT22;4642;51.364;6.788;2023-01-31T18:05:52;7.40;99.90
9215;DHT22;4642;51.364;6.788;2023-01-31T18:08:17;7.40;99.90
9215;DHT22;4642;51.364;6.788;2023-01-31T18:10:44;7.40;99.90
9215;DHT22;4642;51.364;6.788;2023-01-31T18:13:10;7.40;99.90
9215;DHT22;4642;51.364;6.788;2023-01-31T18:15:36;7.40;99.90
9215;DHT22;4642;51.364;6.788;2023-01-31T18:18:05;7.40;99.90
9215;DHT22;4642;51.364;6.788;2023-01-31T18:20:34;7.40;99.90
9215;DHT22;4642;51.364;6.788;2023-01-31T18:22:59;7.40;99.90
9215;DHT22;4642;51.364;6.788;2023-01-31T18:25:25;7.40;99.90
9215;DHT22;4642;51.364;6.788;2023-01-31T18:27:51;7.40;99.90
9215;DHT22;4642;51.364;6.788;2023-01-31T18:30:16;7.40;99.90
9215;DHT22;4642;51.364;6.788;2023-01-31T18:32:42;7.30;99.90
9215;DHT22;4642;51.364;6.788;2023-01-31T18:35:08;7.30;99.90
9215;DHT22;4642;51.364;6.788;2023-01-31T18:37:33;7.20;99.90
9215;DHT22;4642;51.364;6.788;2023-01-31T18:39:59;7.10;99.90
9215;DHT22;4642;51.364;6.788;2023-01-31T18:42:24;7.20;99.90
9215;DHT22;4642;51.364;6.788;2023-01-31T18:44:50;7.10;99.90
9215;DHT22;4642;51.364;6.788;2023-01-31T18:47:15;7.00;99.90
9215;DHT22;4642;51.364;6.788;2023-01-31T18:49:41;7.10;99.90